createdAt,value
2023-12-31T00:02:25.731Z,34.70
2023-12-31T00:04:53.263Z,40.40
2023-12-31T00:07:21.493Z,36.40
2023-12-31T00:09:49.085Z,39.50
2023-12-31T00:12:16.554Z,36.30
2023-12-31T00:14:44.050Z,34.40
2023-12-31T00:17:11.788Z,35.30
2023-12-31T00:19:39.484Z,36.10
2023-12-31T00:22:07.746Z,35.00
2023-12-31T00:24:35.296Z,34.50
2023-12-31T00:27:02.826Z,37.50
2023-12-31T00:29:31.307Z,33.40
2023-12-31T00:31:59.849Z,33.00
2023-12-31T00:34:27.329Z,35.10
2023-12-31T00:36:54.885Z,33.90
2023-12-31T00:39:22.427Z,34.80
2023-12-31T00:41:50.215Z,32.50
2023-12-31T00:44:17.983Z,34.80
2023-12-31T00:46:45.726Z,33.40
2023-12-31T00:49:13.302Z,34.30
2023-12-31T00:51:41.135Z,33.90
2023-12-31T00:54:08.649Z,32.80
2023-12-31T00:56:36.165Z,31.40
2023-12-31T00:59:04.198Z,29.40
2023-12-31T01:01:32.844Z,28.60
2023-12-31T01:04:00.348Z,24.70
2023-12-31T01:06:27.809Z,26.00
2023-12-31T01:08:58.192Z,27.10
2023-12-31T01:11:28.415Z,27.00
2023-12-31T01:13:56.200Z,30.80
2023-12-31T01:16:23.890Z,30.00
2023-12-31T01:18:51.429Z,28.30
2023-12-31T01:21:20.165Z,28.50
2023-12-31T01:23:47.868Z,24.10
2023-12-31T01:26:15.857Z,24.20
2023-12-31T01:28:43.630Z,24.90
2023-12-31T01:31:19.202Z,28.10
2023-12-31T01:33:47.595Z,28.50
2023-12-31T01:36:17.051Z,25.20
2023-12-31T01:38:44.970Z,23.10
2023-12-31T01:41:12.807Z,26.10
2023-12-31T01:43:40.452Z,22.90
2023-12-31T01:46:08.109Z,23.70
2023-12-31T01:48:35.686Z,26.20
2023-12-31T01:51:03.988Z,27.70
2023-12-31T01:53:33.029Z,29.00
2023-12-31T01:56:00.641Z,24.70
2023-12-31T01:58:28.461Z,22.30
2023-12-31T02:00:56.059Z,24.20
2023-12-31T02:03:23.730Z,22.70
2023-12-31T02:05:51.313Z,25.00
2023-12-31T02:08:18.966Z,27.80
2023-12-31T02:10:46.840Z,28.30
2023-12-31T02:13:14.411Z,30.20
2023-12-31T02:15:41.898Z,27.50
2023-12-31T02:18:09.981Z,24.70
2023-12-31T02:20:38.130Z,28.10
2023-12-31T02:23:07.292Z,27.80
2023-12-31T02:25:35.292Z,27.20
2023-12-31T02:28:03.102Z,27.90
2023-12-31T02:30:31.415Z,29.30
2023-12-31T02:32:59.084Z,26.50
2023-12-31T02:35:26.658Z,25.70
2023-12-31T02:37:54.189Z,24.90
2023-12-31T02:40:22.346Z,27.50
2023-12-31T02:42:51.275Z,24.50
2023-12-31T02:45:18.761Z,25.40
2023-12-31T02:47:48.057Z,27.80
2023-12-31T02:50:16.228Z,26.40
2023-12-31T02:52:43.743Z,26.30
2023-12-31T02:55:11.333Z,28.90
2023-12-31T02:57:38.859Z,25.50
2023-12-31T03:00:07.145Z,27.70
2023-12-31T03:02:35.064Z,26.90
2023-12-31T03:05:03.092Z,26.90
2023-12-31T03:07:30.611Z,26.20
2023-12-31T03:09:58.184Z,26.30
2023-12-31T03:12:25.752Z,27.40
2023-12-31T03:14:53.308Z,26.50
2023-12-31T03:17:20.758Z,26.60
2023-12-31T03:19:49.264Z,26.60
2023-12-31T03:22:29.928Z,27.80
2023-12-31T03:27:29.171Z,24.30
2023-12-31T03:29:56.683Z,24.80
2023-12-31T03:32:24.815Z,27.00
2023-12-31T03:34:53.097Z,27.20
2023-12-31T03:37:22.535Z,28.70
2023-12-31T03:39:52.152Z,28.40
2023-12-31T03:42:19.965Z,28.10
2023-12-31T03:44:48.389Z,25.80
2023-12-31T03:47:15.927Z,25.20
2023-12-31T03:49:43.563Z,28.10
2023-12-31T03:52:12.396Z,23.20
2023-12-31T03:54:43.304Z,26.00
2023-12-31T03:57:11.196Z,23.60
2023-12-31T03:59:40.734Z,24.20
2023-12-31T04:02:08.415Z,26.00
2023-12-31T04:04:36.205Z,25.20
2023-12-31T04:07:05.746Z,24.70
2023-12-31T04:09:34.736Z,23.90
2023-12-31T04:12:06.298Z,22.90
2023-12-31T04:14:33.936Z,27.50
2023-12-31T04:17:01.572Z,22.80
2023-12-31T04:19:30.011Z,23.00
2023-12-31T04:21:57.515Z,24.50
2023-12-31T04:24:25.176Z,23.40
2023-12-31T04:26:54.189Z,25.70
2023-12-31T04:29:21.685Z,24.60
2023-12-31T04:31:52.767Z,21.90
2023-12-31T04:34:22.911Z,22.30
2023-12-31T04:36:50.386Z,19.10
2023-12-31T04:39:17.970Z,16.70
2023-12-31T04:41:45.505Z,18.10
2023-12-31T04:44:13.079Z,18.70
2023-12-31T04:46:41.898Z,18.40
2023-12-31T04:49:09.455Z,20.30
2023-12-31T04:51:37.018Z,19.20
2023-12-31T04:54:04.615Z,18.30
2023-12-31T04:56:32.136Z,22.70
2023-12-31T04:59:00.255Z,20.20
2023-12-31T05:01:33.536Z,18.50
2023-12-31T05:04:02.660Z,21.20
2023-12-31T05:06:30.213Z,21.00
2023-12-31T05:08:57.796Z,17.30
2023-12-31T05:11:25.759Z,19.80
2023-12-31T05:13:53.299Z,20.50
2023-12-31T05:16:20.946Z,17.80
2023-12-31T05:18:52.243Z,20.30
2023-12-31T05:21:20.429Z,19.50
2023-12-31T05:23:47.961Z,18.10
2023-12-31T05:26:15.523Z,21.10
2023-12-31T05:28:43.050Z,21.40
2023-12-31T05:31:11.924Z,22.30
2023-12-31T05:33:39.574Z,22.40
2023-12-31T05:36:07.238Z,19.90
2023-12-31T05:38:34.774Z,21.60
2023-12-31T05:41:02.267Z,20.90
2023-12-31T05:43:29.975Z,21.30
2023-12-31T05:45:57.618Z,21.70
2023-12-31T05:48:25.372Z,20.90
2023-12-31T05:50:53.056Z,22.50
2023-12-31T05:53:20.779Z,23.40
2023-12-31T05:55:48.768Z,22.60
2023-12-31T05:58:16.467Z,21.00
2023-12-31T06:00:44.045Z,22.10
2023-12-31T06:03:11.602Z,22.70
2023-12-31T06:05:39.125Z,23.80
2023-12-31T06:08:07.184Z,23.40
2023-12-31T06:10:34.824Z,25.70
2023-12-31T06:13:03.506Z,22.60
2023-12-31T06:15:31.858Z,21.60
2023-12-31T06:17:59.514Z,20.40
2023-12-31T06:20:27.089Z,27.60
2023-12-31T06:22:54.606Z,23.90
2023-12-31T06:25:22.242Z,23.00
2023-12-31T06:27:49.940Z,21.80
2023-12-31T06:30:17.688Z,20.80
2023-12-31T06:32:45.499Z,22.20
2023-12-31T06:35:13.184Z,22.10
2023-12-31T06:37:40.743Z,21.30
2023-12-31T06:40:09.908Z,24.90
2023-12-31T06:42:37.499Z,21.90
2023-12-31T06:45:06.301Z,23.40
2023-12-31T06:47:33.948Z,23.30
2023-12-31T06:50:01.687Z,23.00
2023-12-31T06:52:29.186Z,23.30
2023-12-31T06:54:56.963Z,23.30
2023-12-31T06:57:24.550Z,24.30
2023-12-31T06:59:52.260Z,23.90
2023-12-31T07:02:20.847Z,25.70
2023-12-31T07:04:48.330Z,25.40
2023-12-31T07:07:16.023Z,25.30
2023-12-31T07:09:43.556Z,24.20
2023-12-31T07:12:11.023Z,24.30
2023-12-31T07:14:39.108Z,23.10
2023-12-31T07:17:06.678Z,24.50
2023-12-31T07:19:34.205Z,22.70
2023-12-31T07:22:01.769Z,22.40
2023-12-31T07:24:29.372Z,23.80
2023-12-31T07:26:56.838Z,22.90
2023-12-31T07:29:24.447Z,25.50
2023-12-31T07:31:52.281Z,22.20
2023-12-31T07:34:20.036Z,24.00
2023-12-31T07:36:47.632Z,23.00
2023-12-31T07:39:15.142Z,25.20
2023-12-31T07:41:42.683Z,21.90
2023-12-31T07:44:10.207Z,18.80
2023-12-31T07:46:39.091Z,22.00
2023-12-31T07:49:06.711Z,18.40
2023-12-31T07:51:34.503Z,17.60
2023-12-31T07:54:02.711Z,19.40
2023-12-31T07:56:30.216Z,21.30
2023-12-31T07:58:57.895Z,18.10
2023-12-31T08:01:25.473Z,21.00
2023-12-31T08:03:53.361Z,19.70
2023-12-31T08:06:21.181Z,18.00
2023-12-31T08:08:50.261Z,20.60
2023-12-31T08:11:17.834Z,16.60
2023-12-31T08:13:45.418Z,17.10
2023-12-31T08:16:13.072Z,16.90
2023-12-31T08:18:40.640Z,18.30
2023-12-31T08:21:08.217Z,15.30
2023-12-31T08:23:35.791Z,16.90
2023-12-31T08:26:05.067Z,17.80
2023-12-31T08:28:32.680Z,18.50
2023-12-31T08:31:00.780Z,16.40
2023-12-31T08:33:28.409Z,16.00
2023-12-31T08:35:56.286Z,16.10
2023-12-31T08:38:24.289Z,18.40
2023-12-31T08:40:52.124Z,18.20
2023-12-31T08:43:19.892Z,15.20
2023-12-31T08:45:52.395Z,17.20
2023-12-31T08:48:21.255Z,20.50
2023-12-31T08:50:49.278Z,19.90
2023-12-31T08:53:16.836Z,14.30
2023-12-31T08:55:44.492Z,18.40
2023-12-31T08:58:13.663Z,16.80
2023-12-31T09:00:41.392Z,15.70
2023-12-31T09:03:08.953Z,17.20
2023-12-31T09:05:36.704Z,16.60
2023-12-31T09:08:05.012Z,14.60
2023-12-31T09:10:34.994Z,17.90
2023-12-31T09:13:05.024Z,12.90
2023-12-31T09:15:33.037Z,11.40
2023-12-31T09:18:00.749Z,14.20
2023-12-31T09:20:28.357Z,13.10
2023-12-31T09:22:55.957Z,16.00
2023-12-31T09:25:24.477Z,17.10
2023-12-31T09:27:52.298Z,14.30
2023-12-31T09:30:20.919Z,11.10
2023-12-31T09:32:48.567Z,12.60
2023-12-31T09:35:16.350Z,13.90
2023-12-31T09:37:43.861Z,11.90
2023-12-31T09:40:11.942Z,9.00
2023-12-31T09:42:42.479Z,9.00
2023-12-31T09:45:10.323Z,8.20
2023-12-31T09:47:38.032Z,9.80
2023-12-31T09:50:09.065Z,11.70
2023-12-31T09:52:37.547Z,8.20
2023-12-31T09:55:05.677Z,9.90
2023-12-31T09:57:36.304Z,9.50
2023-12-31T10:00:06.929Z,11.20
2023-12-31T10:02:41.987Z,9.70
2023-12-31T10:05:11.071Z,17.30
2023-12-31T10:07:39.246Z,9.70
2023-12-31T10:10:07.159Z,9.70
2023-12-31T10:12:34.745Z,9.80
2023-12-31T10:15:02.213Z,10.60
2023-12-31T10:17:31.008Z,10.90
2023-12-31T10:19:59.355Z,10.70
2023-12-31T10:22:27.018Z,12.60
2023-12-31T10:24:54.747Z,8.00
2023-12-31T10:27:22.359Z,9.80
2023-12-31T10:29:49.931Z,17.00
2023-12-31T10:32:21.707Z,9.30
2023-12-31T10:35:03.578Z,11.80
2023-12-31T10:37:31.309Z,12.60
2023-12-31T10:39:58.852Z,13.20
2023-12-31T10:42:26.560Z,12.40
2023-12-31T10:44:59.351Z,9.40
2023-12-31T10:47:26.952Z,7.40
2023-12-31T10:49:58.055Z,12.10
2023-12-31T10:52:26.430Z,9.40
2023-12-31T10:54:54.142Z,7.20
2023-12-31T10:57:24.670Z,10.10
2023-12-31T10:59:52.292Z,10.10
2023-12-31T11:02:22.058Z,9.90
2023-12-31T11:04:50.188Z,9.80
2023-12-31T11:07:21.610Z,6.40
2023-12-31T11:09:52.275Z,7.10
2023-12-31T11:12:19.931Z,6.90
2023-12-31T11:15:06.054Z,6.40
2023-12-31T11:17:52.448Z,8.70
2023-12-31T11:20:54.408Z,8.90
2023-12-31T11:24:05.766Z,7.40
2023-12-31T11:26:33.326Z,8.50
2023-12-31T11:29:02.178Z,6.50
2023-12-31T11:31:29.705Z,7.90
2023-12-31T11:33:57.332Z,6.20
2023-12-31T11:36:24.943Z,6.30
2023-12-31T11:39:02.626Z,8.30
2023-12-31T11:41:34.905Z,6.50
2023-12-31T11:44:02.983Z,7.10
2023-12-31T11:46:35.210Z,9.20
2023-12-31T11:49:02.963Z,7.20
2023-12-31T11:51:53.830Z,5.60
2023-12-31T11:54:23.134Z,7.00
2023-12-31T11:56:54.280Z,6.40
2023-12-31T11:59:22.062Z,7.10
2023-12-31T12:01:53.560Z,7.20
2023-12-31T12:04:23.371Z,9.20
2023-12-31T12:06:51.683Z,7.50
2023-12-31T12:09:26.395Z,7.00
2023-12-31T12:12:01.797Z,9.60
2023-12-31T12:14:29.729Z,9.50
2023-12-31T12:16:57.605Z,9.50
2023-12-31T12:19:25.458Z,8.60
2023-12-31T12:21:53.199Z,10.50
2023-12-31T12:24:20.912Z,11.20
2023-12-31T12:26:51.961Z,10.20
2023-12-31T12:29:19.606Z,11.30
2023-12-31T12:31:49.037Z,10.30
2023-12-31T12:34:16.991Z,11.10
2023-12-31T12:36:44.683Z,11.80
2023-12-31T12:39:19.811Z,12.80
2023-12-31T12:41:51.856Z,9.10
2023-12-31T12:44:23.791Z,12.20
2023-12-31T12:46:52.844Z,9.70
2023-12-31T12:49:22.140Z,11.40
2023-12-31T12:51:50.461Z,9.50
2023-12-31T12:54:18.560Z,8.80
2023-12-31T12:56:46.574Z,9.70
2023-12-31T12:59:14.542Z,10.30
2023-12-31T13:01:42.496Z,11.80
2023-12-31T13:04:14.076Z,10.20
2023-12-31T13:06:42.102Z,8.70
2023-12-31T13:09:09.799Z,8.50
2023-12-31T13:11:37.457Z,8.50
2023-12-31T13:14:05.122Z,9.50
2023-12-31T13:16:43.402Z,9.40
2023-12-31T13:19:23.252Z,12.00
2023-12-31T13:21:53.802Z,11.90
2023-12-31T13:24:21.814Z,10.20
2023-12-31T13:26:49.629Z,9.10
2023-12-31T13:29:17.490Z,8.50
2023-12-31T13:31:45.416Z,7.40
2023-12-31T13:34:13.041Z,7.10
2023-12-31T13:36:40.733Z,8.20
2023-12-31T13:39:08.964Z,10.30
2023-12-31T13:41:36.537Z,7.30
2023-12-31T13:44:04.432Z,6.50
2023-12-31T13:46:32.071Z,8.10
2023-12-31T13:48:59.640Z,9.70
2023-12-31T13:51:27.175Z,6.90
2023-12-31T13:53:54.794Z,6.40
2023-12-31T13:56:22.306Z,7.20
2023-12-31T13:58:49.838Z,8.00
2023-12-31T14:01:17.439Z,6.60
2023-12-31T14:03:45.296Z,12.60
2023-12-31T14:06:17.845Z,11.00
2023-12-31T14:08:45.952Z,11.60
2023-12-31T14:11:13.652Z,10.70
2023-12-31T14:13:41.308Z,12.80
2023-12-31T14:16:09.018Z,10.30
2023-12-31T14:18:36.537Z,9.30
2023-12-31T14:21:04.212Z,9.90
2023-12-31T14:23:36.072Z,10.30
2023-12-31T14:26:04.028Z,8.90
2023-12-31T14:28:31.647Z,11.70
2023-12-31T14:30:59.224Z,9.80
2023-12-31T14:33:27.409Z,8.20
2023-12-31T14:35:55.694Z,9.10
2023-12-31T14:38:23.465Z,11.70
2023-12-31T14:40:51.210Z,11.90
2023-12-31T14:43:18.798Z,15.10
2023-12-31T14:45:46.405Z,16.60
2023-12-31T14:48:14.083Z,16.50
2023-12-31T14:50:41.904Z,17.30
2023-12-31T14:53:09.924Z,15.30
2023-12-31T14:55:37.914Z,19.20
2023-12-31T14:58:06.529Z,14.80
2023-12-31T15:00:34.221Z,16.90
2023-12-31T15:03:02.455Z,17.50
2023-12-31T15:05:31.892Z,18.80
2023-12-31T15:08:00.710Z,17.30
2023-12-31T15:10:28.381Z,20.70
2023-12-31T15:12:59.330Z,19.60
2023-12-31T15:15:26.830Z,19.40
2023-12-31T15:17:54.501Z,20.90
2023-12-31T15:20:22.484Z,21.50
2023-12-31T15:22:51.178Z,19.20
2023-12-31T15:25:18.842Z,17.20
2023-12-31T15:27:46.685Z,19.20
2023-12-31T15:30:14.543Z,18.90
2023-12-31T15:32:42.236Z,20.40
2023-12-31T15:35:15.542Z,19.70
2023-12-31T15:37:54.654Z,22.80
2023-12-31T15:40:29.785Z,22.40
2023-12-31T15:42:57.435Z,25.00
2023-12-31T15:45:25.011Z,23.10
2023-12-31T15:47:52.524Z,23.90
2023-12-31T15:50:20.255Z,23.50
2023-12-31T15:52:48.070Z,24.30
2023-12-31T15:55:15.796Z,28.70
2023-12-31T15:57:43.435Z,25.20
2023-12-31T16:00:15.309Z,24.40
2023-12-31T16:02:43.276Z,23.60
2023-12-31T16:05:30.614Z,22.80
2023-12-31T16:08:15.642Z,24.80
2023-12-31T16:10:43.403Z,22.90
2023-12-31T16:13:11.699Z,23.30
2023-12-31T16:15:39.240Z,22.00
2023-12-31T16:18:07.337Z,18.30
2023-12-31T16:20:35.129Z,19.90
2023-12-31T16:23:03.124Z,17.70
2023-12-31T16:25:30.791Z,19.90
2023-12-31T16:27:58.620Z,19.00
2023-12-31T16:30:26.192Z,19.10
2023-12-31T16:32:53.829Z,19.40
2023-12-31T16:35:21.369Z,26.20
2023-12-31T16:37:48.926Z,19.50
2023-12-31T16:40:16.750Z,23.70
2023-12-31T16:42:44.405Z,28.60
2023-12-31T16:45:12.243Z,25.80
2023-12-31T16:47:40.882Z,27.80
2023-12-31T16:50:13.853Z,25.40
2023-12-31T16:52:42.090Z,25.60
2023-12-31T16:55:11.796Z,23.80
2023-12-31T16:57:39.714Z,24.90
2023-12-31T17:00:09.227Z,27.70
2023-12-31T17:02:36.900Z,23.60
2023-12-31T17:05:04.860Z,20.20
2023-12-31T17:07:32.823Z,22.20
2023-12-31T17:10:02.735Z,24.00
2023-12-31T17:12:30.277Z,24.60
2023-12-31T17:14:57.914Z,23.00
2023-12-31T17:17:25.583Z,23.30
2023-12-31T17:19:53.340Z,23.30
2023-12-31T17:22:20.843Z,21.20
2023-12-31T17:24:49.819Z,21.80
2023-12-31T17:27:27.651Z,18.60
2023-12-31T17:29:55.270Z,18.20
2023-12-31T17:32:22.904Z,18.90
2023-12-31T17:34:50.887Z,19.00
2023-12-31T17:37:18.444Z,17.50
2023-12-31T17:39:46.144Z,17.50
2023-12-31T17:42:14.123Z,18.60
2023-12-31T17:44:52.648Z,17.30
2023-12-31T17:47:23.131Z,16.20
2023-12-31T17:49:50.859Z,16.90
2023-12-31T17:52:18.432Z,19.50
2023-12-31T17:54:48.001Z,18.80
2023-12-31T17:57:15.619Z,18.10
2023-12-31T17:59:43.427Z,20.30
2023-12-31T18:02:11.160Z,20.80
2023-12-31T18:04:40.807Z,18.10
2023-12-31T18:07:09.287Z,17.60
2023-12-31T18:09:37.000Z,19.80
2023-12-31T18:12:04.856Z,17.50
2023-12-31T18:14:32.416Z,17.90
2023-12-31T18:17:00.212Z,18.10
2023-12-31T18:19:27.895Z,17.70
2023-12-31T18:21:55.702Z,17.40
2023-12-31T18:24:23.424Z,17.90
2023-12-31T18:26:50.926Z,18.00
2023-12-31T18:29:18.733Z,21.10
2023-12-31T18:31:47.007Z,20.20
2023-12-31T18:34:14.939Z,19.20
2023-12-31T18:36:44.217Z,16.60
2023-12-31T18:39:11.827Z,15.90
2023-12-31T18:41:39.363Z,15.90
2023-12-31T18:44:06.881Z,15.10
2023-12-31T18:46:40.929Z,15.90
2023-12-31T18:49:08.817Z,17.00
2023-12-31T18:51:42.668Z,14.30
2023-12-31T18:54:12.175Z,17.50
2023-12-31T18:56:39.840Z,14.40
2023-12-31T18:59:08.772Z,14.60
2023-12-31T19:01:37.420Z,12.60
2023-12-31T19:04:05.425Z,14.80
2023-12-31T19:06:33.130Z,17.10
2023-12-31T19:09:00.911Z,11.90
2023-12-31T19:11:29.510Z,11.50
2023-12-31T19:13:57.087Z,15.70
2023-12-31T19:16:24.819Z,13.00
2023-12-31T19:18:57.933Z,11.00
2023-12-31T19:21:25.860Z,13.30
2023-12-31T19:23:53.701Z,11.40
2023-12-31T19:26:21.246Z,12.40
2023-12-31T19:28:48.894Z,12.10
2023-12-31T19:31:17.593Z,10.70
2023-12-31T19:33:45.346Z,13.30
2023-12-31T19:36:13.320Z,13.60
2023-12-31T19:38:40.823Z,11.60
2023-12-31T19:41:08.834Z,12.70
2023-12-31T19:43:56.100Z,13.90
2023-12-31T19:46:25.567Z,12.90
2023-12-31T19:48:53.444Z,12.50
2023-12-31T19:51:21.150Z,13.50
2023-12-31T19:53:48.738Z,14.40
2023-12-31T19:56:16.436Z,13.50
2023-12-31T19:58:44.173Z,13.20
2023-12-31T20:01:11.741Z,19.90
2023-12-31T20:03:46.225Z,13.70
2023-12-31T20:08:41.416Z,14.20
2023-12-31T20:11:09.688Z,17.60
2023-12-31T20:13:38.925Z,15.50
2023-12-31T20:16:06.781Z,14.40
2023-12-31T20:18:34.569Z,17.30
2023-12-31T20:21:05.227Z,14.00
2023-12-31T20:23:32.780Z,13.80
2023-12-31T20:26:00.369Z,16.90
2023-12-31T20:28:28.000Z,19.40
2023-12-31T20:30:55.731Z,17.30
2023-12-31T20:33:23.501Z,16.90
2023-12-31T20:35:51.309Z,16.10
2023-12-31T20:38:18.977Z,16.70
2023-12-31T20:40:46.802Z,19.20
2023-12-31T20:43:14.295Z,17.50
2023-12-31T20:45:43.256Z,16.80
2023-12-31T20:48:10.851Z,17.90
2023-12-31T20:50:40.207Z,19.00
2023-12-31T20:53:08.034Z,17.40
2023-12-31T20:55:35.834Z,17.50
2023-12-31T20:58:03.542Z,17.30
2023-12-31T21:00:31.183Z,17.70
2023-12-31T21:02:58.630Z,17.50
2023-12-31T21:05:26.323Z,19.50
2023-12-31T21:07:53.965Z,20.70
2023-12-31T21:10:21.558Z,20.90
2023-12-31T21:12:49.047Z,20.00
2023-12-31T21:15:16.694Z,20.60
2023-12-31T21:17:44.223Z,20.80
2023-12-31T21:20:11.997Z,19.10
2023-12-31T21:22:39.679Z,20.70
2023-12-31T21:25:07.377Z,21.30
2023-12-31T21:27:34.901Z,18.20
2023-12-31T21:30:02.628Z,21.90
2023-12-31T21:32:30.251Z,17.30
2023-12-31T21:34:57.979Z,22.10
2023-12-31T21:37:25.567Z,18.20
2023-12-31T21:39:56.159Z,18.30
2023-12-31T21:42:23.708Z,19.30
2023-12-31T21:44:51.258Z,18.70
2023-12-31T21:47:18.798Z,16.30
2023-12-31T21:49:46.448Z,16.10
2023-12-31T21:52:14.004Z,17.10
2023-12-31T21:54:41.738Z,14.50
2023-12-31T21:57:09.300Z,12.90
2023-12-31T21:59:36.888Z,17.20
2023-12-31T22:02:04.575Z,18.40
2023-12-31T22:04:32.353Z,16.10
2023-12-31T22:06:59.981Z,16.50
2023-12-31T22:09:27.611Z,14.90
2023-12-31T22:11:55.170Z,15.40
2023-12-31T22:14:22.770Z,15.10
2023-12-31T22:16:50.514Z,14.90
2023-12-31T22:19:18.214Z,13.70
2023-12-31T22:21:46.947Z,14.10
2023-12-31T22:24:14.680Z,13.60
2023-12-31T22:26:42.277Z,14.10
2023-12-31T22:29:09.818Z,14.50
2023-12-31T22:31:37.386Z,12.60
2023-12-31T22:34:04.997Z,14.20
2023-12-31T22:36:32.547Z,13.20
2023-12-31T22:39:00.019Z,15.80
2023-12-31T22:41:27.605Z,14.00
2023-12-31T22:43:55.211Z,13.50
2023-12-31T22:46:28.687Z,12.50
2023-12-31T22:48:56.430Z,12.00
2023-12-31T22:51:23.990Z,13.40
2023-12-31T22:53:53.203Z,15.20
2023-12-31T22:56:20.825Z,13.00
2023-12-31T22:58:48.331Z,15.70
2023-12-31T23:01:15.908Z,13.10
2023-12-31T23:03:43.939Z,14.40
2023-12-31T23:06:11.520Z,13.60
2023-12-31T23:08:39.081Z,15.30
2023-12-31T23:11:06.842Z,15.30
2023-12-31T23:13:38.104Z,17.30
2023-12-31T23:16:06.013Z,15.00
2023-12-31T23:18:34.777Z,15.40
2023-12-31T23:21:02.430Z,16.10
2023-12-31T23:23:29.964Z,14.80
2023-12-31T23:26:09.442Z,16.80
2023-12-31T23:28:37.325Z,16.50
2023-12-31T23:31:05.145Z,16.90
2023-12-31T23:33:33.801Z,16.80
2023-12-31T23:36:01.501Z,17.40
2023-12-31T23:38:29.144Z,16.70
2023-12-31T23:40:56.768Z,17.40
2023-12-31T23:43:24.299Z,15.30
2023-12-31T23:45:52.038Z,16.00
2023-12-31T23:48:20.259Z,17.80
2023-12-31T23:50:47.909Z,18.10
2023-12-31T23:53:16.174Z,19.50
2023-12-31T23:55:44.316Z,17.90
2023-12-31T23:58:17.354Z,19.10
